ヨハネスブルグ の空港の天気 - METARとTAF

ヨハネスブルグ/O.R.タンボ国際空港 ( FAOR / JNB ) - 南アフリカ ヨハネスブルグ
飛行場実況気象(Metar)
観測時間10/16 08:00 SAST (10/16 06:00 UTC)
風向・風速東北東 2m/s
視程10km以上
天気現象
なし
気温19℃
湿度30%
気圧1024hPa
METARFAOR 160600Z 06003KT 030V100 CAVOK 19/01 Q1024 NOSIG
過去の天気等 Google飛行場航空写真 Wunderground天気予報

過去48時間のMETAR

飛行場予報(TAF)
発表時間: 10/16 06:00 SAST (10/16 04:00 UTC)
予報対象時間: 16日8時 SAST ~ 17日14時 SAST
風向・風速不定 2m/s
視程10km以上
なし
16日10時 SAST ~ 16日12時 SAST に徐々に
風向・風速北西 5m/s
16日22時 SAST ~ 16日24時 SAST に徐々に
風向・風速不定 2m/s
17日5時 SAST ~ 17日7時 SAST に徐々に
風向・風速北北西 5m/s
全天の8割程度の雲 雲底高度 430m
TAF FAOR 160400Z 1606/1712 VRB03KT CAVOK
BECMG 1608/1610 32010KT
BECMG 1620/1622 VRB03KT
BECMG 1703/1705 34010KT BKN014 TX27/1613Z TN14/1704Z